« Back
NWS Peachtree City, Ga » Text Product » MCN Terminal Aerodrome Forecast


Printer-friendly Version
Current Version              Previous Versions:   1  2  3  4  5  6  7  8  9  

Terminal Aerodrome Forecast

907
FTUS42 KFFC 200334 AAA
TAFMCN
TAF AMD
KMCN 200334Z 2004/2024 VRB03KT P6SM VCSH SCT040 OVC100
     FM200600 03003KT 6SM -RA BR FEW025 OVC040
     FM200800 03003KT 5SM -RA BR OVC025
     FM201200 05004KT 4SM -RA BR OVC015
     FM201700 06005KT P6SM VCSH OVC025
     FM202200 07004KT P6SM BKN035=

USA.gov is the U.S. government's official web portal to all federal, state and local government web resources and services.